Time;durP1;ratioP1;P1;durP2;ratioP2;P2;SDS_P1;SDS_P2;PMS_P1;PMS_P2;Temp;Humidity;BMP_temperature;BMP_pressure;BME280_temperature;BME280_humidity;BME280_pressure;Samples;Min_cycle;Max_cycle;Signal;HPM_P1;HPM_P2
2023/07/21 00:01:13;;;;;;;3.00;2.47;;;;;;;18.10;85.30;99628.88;1705508;83;21107;-64
2023/07/21 00:03:45;;;;;;;4.78;2.65;;;;;;;18.10;85.32;99628.33;1681465;83;21079;-66
2023/07/21 00:06:19;;;;;;;3.67;2.75;;;;;;;18.09;85.27;99628.59;1692396;84;21082;-64
2023/07/21 00:08:47;;;;;;;6.08;2.83;;;;;;;18.05;85.22;99642.98;1692349;84;21512;-64
2023/07/21 00:11:17;;;;;;;4.62;2.95;;;;;;;18.02;85.00;99642.68;1692562;85;21492;-63
2023/07/21 00:13:48;;;;;;;3.47;2.70;;;;;;;17.96;84.99;99643.19;1692525;85;21054;-65
2023/07/21 00:16:18;;;;;;;3.98;2.75;;;;;;;17.87;84.52;99651.70;1692521;85;21038;-64
2023/07/21 00:18:48;;;;;;;3.58;2.60;;;;;;;17.83;84.70;99646.41;1692580;85;21507;-64
2023/07/21 00:21:19;;;;;;;3.87;2.80;;;;;;;17.83;84.80;99653.88;1675135;85;21022;-65
2023/07/21 00:23:48;;;;;;;2.62;2.25;;;;;;;17.83;84.69;99654.72;1692277;85;21074;-65
2023/07/21 00:26:19;;;;;;;3.83;2.50;;;;;;;17.83;84.72;99653.33;1692513;85;21066;-64
2023/07/21 00:28:48;;;;;;;4.50;2.47;;;;;;;17.86;84.44;99654.19;1692482;85;21004;-65
2023/07/21 00:31:18;;;;;;;3.17;2.50;;;;;;;17.86;84.14;99650.58;1675021;85;21050;-64
2023/07/21 00:33:47;;;;;;;2.45;1.95;;;;;;;17.86;84.07;99658.34;1692287;85;21046;-64
2023/07/21 00:36:16;;;;;;;2.60;2.40;;;;;;;17.85;83.85;99662.22;1692052;85;21041;-64
2023/07/21 00:38:46;;;;;;;4.25;2.35;;;;;;;17.83;83.83;99656.10;1692441;84;21022;-64
2023/07/21 00:41:17;;;;;;;3.37;2.40;;;;;;;17.84;83.97;99655.00;1692286;85;21498;-64
2023/07/21 00:43:46;;;;;;;2.80;2.30;;;;;;;17.86;84.05;99643.66;1692284;85;21018;-64
2023/07/21 00:46:16;;;;;;;2.72;2.20;;;;;;;17.87;83.94;99645.33;1692191;85;21545;-64
2023/07/21 00:48:45;;;;;;;4.00;2.37;;;;;;;17.83;83.71;99643.63;1675041;85;21030;-64
2023/07/21 00:51:14;;;;;;;2.90;2.25;;;;;;;17.80;83.78;99641.39;1692428;84;21565;-64
2023/07/21 00:53:43;;;;;;;3.00;2.22;;;;;;;17.78;83.89;99649.13;1692314;84;21058;-64
2023/07/21 00:56:13;;;;;;;3.08;1.87;;;;;;;17.78;83.82;99652.45;1692487;85;21022;-65
2023/07/21 00:58:42;;;;;;;3.60;2.30;;;;;;;17.74;83.71;99646.05;1692363;85;21093;-65
2023/07/21 01:01:13;;;;;;;3.62;2.30;;;;;;;17.71;83.62;99642.97;1692610;85;21478;-65
2023/07/21 01:03:42;;;;;;;3.12;2.00;;;;;;;17.69;83.59;99647.94;1692343;85;21014;-65
2023/07/21 01:06:12;;;;;;;2.75;2.40;;;;;;;17.68;83.58;99653.19;1704342;84;21028;-65
2023/07/21 01:08:42;;;;;;;3.30;2.27;;;;;;;17.69;83.58;99644.62;1705685;84;21015;-64
2023/07/21 01:11:12;;;;;;;3.72;2.30;;;;;;;17.71;83.43;99647.12;1681893;84;20993;-65
2023/07/21 01:13:41;;;;;;;3.58;2.30;;;;;;;17.71;83.37;99657.66;1705690;84;21482;-64
2023/07/21 01:16:11;;;;;;;2.98;2.27;;;;;;;17.69;83.06;99657.63;1705802;84;21056;-65
2023/07/21 01:18:41;;;;;;;5.05;2.62;;;;;;;17.65;83.18;99656.45;1705476;83;21063;-66
2023/07/21 01:21:11;;;;;;;3.87;2.50;;;;;;;17.62;83.37;99655.59;1705715;84;21079;-64
2023/07/21 01:24:01;;;;;;;3.65;2.08;;;;;;;17.61;83.37;99660.30;1705457;84;21095;-64
2023/07/21 01:26:31;;;;;;;3.62;2.50;;;;;;;17.60;83.36;99656.41;1705523;84;21448;-65
2023/07/21 01:29:02;;;;;;;3.33;2.75;;;;;;;17.51;83.23;99657.95;1705584;84;21075;-67
2023/07/21 01:31:32;;;;;;;4.03;2.60;;;;;;;17.49;83.52;99660.14;1681745;84;21020;-65
2023/07/21 01:34:04;;;;;;;6.05;2.30;;;;;;;17.47;83.48;99674.25;1705638;83;21028;-66
2023/07/21 01:36:35;;;;;;;3.30;2.60;;;;;;;17.44;83.49;99665.91;1705491;84;21802;-64
2023/07/21 01:39:05;;;;;;;4.10;2.42;;;;;;;17.40;83.73;99673.07;1682219;84;21047;-65
2023/07/21 01:41:34;;;;;;;3.08;2.50;;;;;;;17.36;83.78;99682.99;1705786;84;21060;-66
2023/07/21 01:44:03;;;;;;;4.30;2.58;;;;;;;17.38;83.76;99682.73;1705463;84;21083;-65
2023/07/21 01:46:36;;;;;;;4.72;2.10;;;;;;;17.38;83.69;99686.34;1705647;84;21557;-64
2023/07/21 01:49:05;;;;;;;2.85;2.40;;;;;;;17.40;83.79;99686.91;1705697;84;21044;-64
2023/07/21 01:51:36;;;;;;;5.95;2.33;;;;;;;17.43;83.60;99687.78;1681763;84;21048;-66
2023/07/21 01:54:08;;;;;;;5.28;2.47;;;;;;;17.46;83.55;99692.52;1705637;84;21505;-65
2023/07/21 01:56:41;;;;;;;4.17;2.30;;;;;;;17.47;83.51;99688.09;1705646;84;21083;-65
2023/07/21 01:59:11;;;;;;;4.25;2.40;;;;;;;17.47;83.31;99685.88;1705121;84;21103;-66
2023/07/21 02:01:43;;;;;;;2.95;2.60;;;;;;;17.47;83.25;99686.71;1677175;84;21118;-64
2023/07/21 02:04:13;;;;;;;3.90;2.50;;;;;;;17.46;83.27;99692.52;1681944;84;21032;-65
2023/07/21 02:06:43;;;;;;;5.00;2.60;;;;;;;17.46;83.31;99692.52;1705467;84;21047;-66
2023/07/21 02:09:15;;;;;;;2.85;2.17;;;;;;;17.42;83.23;99703.27;1705478;84;21086;-65
2023/07/21 02:11:45;;;;;;;3.58;2.12;;;;;;;17.37;83.04;99702.66;1681969;84;21123;-65
2023/07/21 02:14:30;;;;;;;3.02;2.10;;;;;;;17.29;82.85;99710.05;1667631;84;21076;-64
2023/07/21 02:17:02;;;;;;;4.00;2.40;;;;;;;17.24;82.96;99718.84;1705660;84;21036;-64
2023/07/21 02:19:31;;;;;;;4.65;2.52;;;;;;;17.19;83.12;99722.38;1705663;83;21051;-65
2023/07/21 02:22:01;;;;;;;2.92;2.30;;;;;;;17.18;83.29;99718.48;1705616;84;21119;-64
2023/07/21 02:24:30;;;;;;;3.40;2.27;;;;;;;17.18;83.38;99722.09;1705686;83;21440;-64
2023/07/21 02:27:01;;;;;;;4.28;2.52;;;;;;;17.19;83.33;99732.62;1705493;84;21035;-64
2023/07/21 02:29:31;;;;;;;4.55;2.27;;;;;;;17.18;83.07;99729.02;1705502;84;21496;-66
2023/07/21 02:32:01;;;;;;;2.60;2.33;;;;;;;17.14;82.96;99737.55;1705543;84;21036;-66
2023/07/21 02:34:31;;;;;;;4.50;3.15;;;;;;;17.10;83.02;99739.15;1705664;84;21004;-65
2023/07/21 02:37:00;;;;;;;4.05;2.70;;;;;;;17.11;83.21;99733.91;1705460;84;21043;-64
2023/07/21 02:39:32;;;;;;;4.92;2.45;;;;;;;17.13;83.25;99735.03;1705787;84;21209;-65
2023/07/21 02:42:01;;;;;;;5.10;2.67;;;;;;;17.14;83.15;99733.39;1705386;83;21467;-65
2023/07/21 02:44:30;;;;;;;3.50;3.02;;;;;;;17.12;83.31;99731.42;1705501;83;21025;-63
2023/07/21 02:47:00;;;;;;;5.40;2.70;;;;;;;17.16;83.49;99740.05;1681546;84;21749;-65
2023/07/21 02:49:30;;;;;;;3.30;2.67;;;;;;;17.17;83.39;99747.27;1705676;84;21040;-65
2023/07/21 02:52:01;;;;;;;4.05;2.75;;;;;;;17.15;83.31;99750.29;1705426;84;21012;-64
2023/07/21 02:54:32;;;;;;;8.33;3.45;;;;;;;17.11;83.42;99756.05;1705428;84;21055;-63
2023/07/21 02:57:02;;;;;;;4.90;3.08;;;;;;;17.11;83.67;99753.28;1705622;84;21060;-66
2023/07/21 02:59:32;;;;;;;4.10;3.15;;;;;;;17.14;83.84;99766.61;1682742;84;21123;-65
2023/07/21 03:02:01;;;;;;;6.85;3.37;;;;;;;17.14;83.89;99766.61;1705326;84;21072;-66
2023/07/21 03:04:36;;;;;;;5.58;3.40;;;;;;;17.14;83.86;99764.39;1705337;84;21265;-65
2023/07/21 03:07:06;;;;;;;5.95;2.98;;;;;;;17.13;84.09;99767.70;1705525;84;21480;-66
2023/07/21 03:09:36;;;;;;;5.97;3.58;;;;;;;17.19;84.32;99753.38;1705577;84;21048;-65
2023/07/21 03:12:08;;;;;;;6.15;3.58;;;;;;;17.23;84.30;99759.53;1705442;83;21024;-66
2023/07/21 03:14:43;;;;;;;5.00;3.35;;;;;;;17.25;84.17;99760.11;1701865;84;21044;-66
2023/07/21 03:17:13;;;;;;;6.10;3.67;;;;;;;17.28;83.98;99768.45;1705566;84;21103;-67
2023/07/21 03:19:44;;;;;;;5.60;3.45;;;;;;;17.29;84.03;99768.20;1705445;83;21043;-65
2023/07/21 03:22:16;;;;;;;4.92;3.70;;;;;;;17.31;84.22;99763.78;1705718;84;21031;-65
2023/07/21 03:24:46;;;;;;;6.83;3.87;;;;;;;17.33;84.25;99771.28;1705531;84;21012;-66
2023/07/21 03:27:15;;;;;;;5.92;3.72;;;;;;;17.36;84.18;99774.92;1664041;86;21125;-66
2023/07/21 03:29:46;;;;;;;4.80;3.70;;;;;;;17.41;84.22;99780.53;1705449;84;21052;-66
2023/07/21 03:32:15;;;;;;;7.12;4.00;;;;;;;17.43;83.86;99772.25;1681452;84;21043;-67
2023/07/21 03:34:48;;;;;;;5.45;3.90;;;;;;;17.47;83.70;99781.43;1681572;84;21080;-65
2023/07/21 03:37:17;;;;;;;4.92;3.70;;;;;;;17.47;83.60;99789.19;1682920;84;21034;-67
2023/07/21 03:39:47;;;;;;;4.90;3.92;;;;;;;17.48;83.41;99790.03;1705659;84;21076;-65
2023/07/21 03:42:16;;;;;;;8.75;3.83;;;;;;;17.43;83.36;99794.41;1681760;84;21043;-66
2023/07/21 03:44:49;;;;;;;9.90;4.90;;;;;;;17.42;83.44;99806.58;1705416;84;21099;-66
2023/07/21 03:47:19;;;;;;;8.63;4.45;;;;;;;17.42;83.41;99798.27;1705352;84;21043;-66
2023/07/21 03:49:54;;;;;;;6.40;4.42;;;;;;;17.39;83.61;99803.48;1705175;84;21102;-66
2023/07/21 03:52:23;;;;;;;7.53;4.60;;;;;;;17.39;83.64;99802.11;1705466;84;21051;-64
2023/07/21 03:54:54;;;;;;;5.90;3.90;;;;;;;17.38;83.85;99798.50;1681620;84;21076;-67
2023/07/21 03:57:24;;;;;;;6.83;4.75;;;;;;;17.41;83.98;99806.84;1705440;83;21470;-66
2023/07/21 03:59:54;;;;;;;6.83;3.90;;;;;;;17.44;83.99;99807.16;1705468;84;21027;-66
2023/07/21 04:02:23;;;;;;;7.28;3.90;;;;;;;17.49;83.90;99813.31;1705313;83;21055;-66
2023/07/21 04:04:54;;;;;;;8.05;3.70;;;;;;;17.55;83.58;99821.14;1659843;84;21528;-67
2023/07/21 04:07:24;;;;;;;9.48;4.20;;;;;;;17.59;82.89;99816.24;1705650;84;21071;-66
2023/07/21 04:09:55;;;;;;;4.22;3.83;;;;;;;17.60;82.33;99822.08;1705687;84;21027;-67
2023/07/21 04:12:25;;;;;;;7.53;4.05;;;;;;;17.59;82.07;99819.56;1705660;84;21028;-67
2023/07/21 04:14:55;;;;;;;6.85;4.47;;;;;;;17.56;82.01;99825.62;1705512;84;21086;-67
2023/07/21 04:17:25;;;;;;;7.85;4.17;;;;;;;17.52;81.91;99839.11;1705982;83;21095;-66
2023/07/21 04:19:57;;;;;;;6.80;4.20;;;;;;;17.54;81.98;99841.63;1705649;84;21055;-67
2023/07/21 04:22:26;;;;;;;6.15;4.12;;;;;;;17.58;82.01;99842.82;1681956;84;21203;-67
2023/07/21 04:24:57;;;;;;;6.58;4.20;;;;;;;17.60;81.74;99846.17;1705629;83;21043;-66
2023/07/21 04:27:28;;;;;;;6.50;4.00;;;;;;;17.64;81.62;99849.55;1705849;84;21028;-66
2023/07/21 04:29:59;;;;;;;6.70;4.10;;;;;;;17.67;81.41;99853.22;1681598;84;21056;-66
2023/07/21 04:32:30;;;;;;;7.15;3.95;;;;;;;17.72;81.49;99860.77;1681671;84;21046;-66
2023/07/21 04:35:03;;;;;;;7.50;4.03;;;;;;;17.75;80.98;99864.41;1705487;84;21449;-69
2023/07/21 04:37:37;;;;;;;8.63;4.28;;;;;;;17.72;80.89;99864.37;1705663;84;21076;-66
2023/07/21 04:40:08;;;;;;;9.45;4.78;;;;;;;17.78;81.20;99863.89;1705449;84;21071;-66
2023/07/21 04:42:39;;;;;;;7.35;5.28;;;;;;;17.88;81.15;99863.17;1705676;84;21075;-67
2023/07/21 04:45:13;;;;;;;6.33;3.95;;;;;;;17.96;80.59;99866.88;1705585;84;21463;-66
2023/07/21 04:47:49;;;;;;;5.08;4.15;;;;;;;17.97;79.79;99861.08;1705010;84;21024;-66
2023/07/21 04:50:19;;;;;;;6.60;4.10;;;;;;;17.94;79.07;99868.52;1705513;84;21036;-66
2023/07/21 04:52:50;;;;;;;5.45;3.62;;;;;;;17.90;79.22;99872.91;1705533;84;21094;-66
2023/07/21 04:55:19;;;;;;;5.03;3.70;;;;;;;17.92;79.16;99869.33;1705603;84;21070;-66
2023/07/21 04:57:48;;;;;;;6.55;3.70;;;;;;;17.95;78.84;99863.81;1705648;84;21103;-71
2023/07/21 05:00:19;;;;;;;6.75;3.83;;;;;;;17.97;78.33;99865.78;1705375;84;21039;-66
2023/07/21 05:02:49;;;;;;;5.95;4.17;;;;;;;17.95;77.51;99874.35;1705778;84;21048;-68
2023/07/21 05:05:18;;;;;;;5.58;3.80;;;;;;;17.91;76.88;99873.20;1705538;83;21095;-65
2023/07/21 05:07:49;;;;;;;7.75;4.25;;;;;;;17.86;76.99;99872.30;1696452;83;21059;-67
2023/07/21 05:10:18;;;;;;;7.22;3.90;;;;;;;17.85;77.12;99883.09;1702459;84;21022;-67
2023/07/21 05:12:51;;;;;;;4.33;3.33;;;;;;;17.85;76.69;99878.94;1702547;84;21430;-68
2023/07/21 05:15:35;;;;;;;5.10;3.60;;;;;;;17.85;76.96;99884.48;1679099;84;21045;-66
2023/07/21 05:18:09;;;;;;;7.50;3.65;;;;;;;17.93;77.01;99890.41;1655278;84;21540;-68
2023/07/21 05:20:52;;;;;;;5.78;3.72;;;;;;;18.03;77.10;99891.08;1679070;84;21026;-66
2023/07/21 05:23:24;;;;;;;13.83;4.45;;;;;;;18.16;76.85;99887.91;1695382;84;21348;-68
2023/07/21 05:26:00;;;;;;;7.80;4.03;;;;;;;18.22;76.34;99892.44;1697131;84;21065;-66
2023/07/21 05:28:31;;;;;;;5.95;3.90;;;;;;;18.30;75.91;99897.52;1673994;84;21482;-67
2023/07/21 05:31:00;;;;;;;4.75;3.45;;;;;;;18.35;75.82;99898.12;1702654;84;21026;-65
2023/07/21 05:33:32;;;;;;;5.67;3.90;;;;;;;18.41;75.23;99903.18;1695674;84;21006;-66
2023/07/21 05:36:08;;;;;;;15.63;5.20;;;;;;;18.41;74.39;99896.24;1697420;84;21006;-67
2023/07/21 05:38:38;;;;;;;16.67;6.50;;;;;;;18.39;73.90;99886.80;1697598;84;21426;-67
2023/07/21 05:41:06;;;;;;;6.75;4.10;;;;;;;18.42;73.90;99900.14;1697453;83;21453;-67
2023/07/21 05:43:37;;;;;;;9.48;4.55;;;;;;;18.49;74.24;99898.55;1697429;84;21035;-68
2023/07/21 05:46:09;;;;;;;7.37;4.25;;;;;;;18.60;74.65;99908.64;1702585;84;21042;-67
2023/07/21 05:48:41;;;;;;;4.75;3.65;;;;;;;18.71;74.03;99903.52;1697068;84;21454;-67
2023/07/21 05:51:14;;;;;;;5.33;3.95;;;;;;;18.71;73.27;99902.67;1670013;84;21035;-68
2023/07/21 05:53:45;;;;;;;7.12;4.33;;;;;;;18.64;73.19;99902.34;1697540;84;21051;-69
2023/07/21 05:56:16;;;;;;;8.23;3.95;;;;;;;18.56;73.35;99909.72;1697560;83;21030;-67
2023/07/21 05:58:58;;;;;;;6.70;3.70;;;;;;;18.57;73.58;99914.17;1680817;83;21098;-65
2023/07/21 06:01:28;;;;;;;6.92;3.72;;;;;;;18.58;73.63;99910.30;1697672;83;21023;-66
2023/07/21 06:03:57;;;;;;;4.53;3.37;;;;;;;18.59;73.45;99913.36;1673945;84;21034;-68
2023/07/21 06:06:29;;;;;;;6.83;3.87;;;;;;;18.59;73.02;99914.75;1702475;83;21582;-67
2023/07/21 06:09:08;;;;;;;9.25;4.10;;;;;;;18.60;73.19;99916.97;1702122;84;21030;-67
2023/07/21 06:11:44;;;;;;;4.80;3.65;;;;;;;18.71;73.47;99927.66;1702321;84;20990;-67
2023/07/21 06:14:15;;;;;;;9.20;3.75;;;;;;;18.86;72.84;99935.60;1674181;84;21454;-67
2023/07/21 06:16:49;;;;;;;5.72;4.00;;;;;;;18.95;72.25;99934.57;1700673;84;21108;-66
2023/07/21 06:19:19;;;;;;;4.15;3.22;;;;;;;19.05;71.93;99927.72;1702098;84;21002;-68
2023/07/21 06:21:49;;;;;;;6.22;3.72;;;;;;;19.21;71.98;99926.73;1701917;84;21442;-71
2023/07/21 06:24:19;;;;;;;27.20;5.15;;;;;;;19.57;71.02;99930.66;1674828;84;21061;-67
2023/07/21 06:26:48;;;;;;;5.17;3.45;;;;;;;19.93;69.80;99930.86;1702181;84;21030;-69
2023/07/21 06:29:20;;;;;;;7.50;3.62;;;;;;;20.33;68.45;99931.60;1701983;84;21426;-67
2023/07/21 06:31:49;;;;;;;5.83;3.47;;;;;;;20.71;66.79;99920.59;1702076;84;21043;-69
2023/07/21 06:34:37;;;;;;;6.75;3.60;;;;;;;21.08;65.33;99925.93;1679132;84;21074;-67
2023/07/21 06:37:06;;;;;;;7.50;4.00;;;;;;;21.31;63.76;99923.16;1702068;84;21058;-69
2023/07/21 06:39:46;;;;;;;7.22;3.98;;;;;;;21.50;63.51;99924.28;1699516;84;21034;-67
2023/07/21 06:42:29;;;;;;;8.03;3.65;;;;;;;21.67;63.32;99929.55;1700514;84;21539;-67
2023/07/21 06:45:11;;;;;;;9.00;4.28;;;;;;;21.83;62.78;99932.57;1699879;84;21042;-67
2023/07/21 06:47:54;;;;;;;4.80;3.55;;;;;;;21.87;62.06;99931.44;1699362;84;21540;-67
2023/07/21 06:50:36;;;;;;;9.70;4.00;;;;;;;21.84;61.66;99930.62;1701901;84;21069;-68
2023/07/21 06:53:06;;;;;;;9.68;4.55;;;;;;;21.71;61.67;99933.44;1702147;83;21031;-68
2023/07/21 06:55:36;;;;;;;8.38;4.72;;;;;;;21.57;62.09;99939.33;1701868;84;21085;-67
2023/07/21 06:58:06;;;;;;;5.97;3.80;;;;;;;21.47;62.51;99937.39;1701946;84;21478;-68
2023/07/21 07:00:35;;;;;;;5.30;3.98;;;;;;;21.42;62.23;99944.89;1701707;84;21252;-68
2023/07/21 07:03:03;;;;;;;6.58;3.60;;;;;;;21.38;62.63;99939.05;1701786;84;21026;-68
2023/07/21 07:05:32;;;;;;;7.08;3.60;;;;;;;21.50;62.83;99954.95;1702032;84;21018;-67
2023/07/21 07:08:05;;;;;;;8.20;3.62;;;;;;;21.61;61.77;99957.16;1723212;83;21034;-67
2023/07/21 07:10:34;;;;;;;4.72;3.60;;;;;;;21.64;61.73;99951.58;1725766;83;21083;-68
2023/07/21 07:13:04;;;;;;;7.80;3.62;;;;;;;21.71;61.18;99945.98;1725975;83;21066;-67
2023/07/21 07:15:34;;;;;;;6.10;3.85;;;;;;;21.88;61.16;99946.23;1725813;83;21082;-68
2023/07/21 07:18:04;;;;;;;6.40;3.45;;;;;;;22.18;60.52;99939.20;1725475;83;21447;-68
2023/07/21 07:20:34;;;;;;;5.97;3.30;;;;;;;22.58;59.39;99947.09;1638451;87;21561;-68
2023/07/21 07:23:03;;;;;;;4.55;3.10;;;;;;;22.93;58.04;99937.70;1617085;87;21192;-68
2023/07/21 07:25:33;;;;;;;5.35;3.08;;;;;;;23.34;57.52;99943.80;1638844;86;21084;-68
2023/07/21 07:28:04;;;;;;;6.28;3.40;;;;;;;23.71;56.17;99946.84;1638756;87;21090;-68
2023/07/21 07:30:35;;;;;;;8.15;3.67;;;;;;;24.01;54.86;99942.05;1638670;87;21060;-68
2023/07/21 07:33:05;;;;;;;5.47;2.83;;;;;;;24.12;53.12;99941.38;1638812;86;21543;-67
2023/07/21 07:35:37;;;;;;;3.92;2.45;;;;;;;24.13;52.73;99949.48;1638543;87;21056;-68
2023/07/21 07:38:06;;;;;;;10.55;4.28;;;;;;;24.37;52.11;99947.26;1660318;83;21125;-67
2023/07/21 07:40:35;;;;;;;4.70;3.15;;;;;;;24.56;50.84;99953.72;1725935;83;21078;-70
2023/07/21 07:43:03;;;;;;;6.35;3.35;;;;;;;24.54;50.33;99951.78;1726121;83;21483;-68
2023/07/21 07:45:37;;;;;;;6.30;3.45;;;;;;;24.50;50.53;99947.92;1726095;83;20995;-68
2023/07/21 07:48:09;;;;;;;8.13;3.00;;;;;;;24.55;51.41;99952.89;1700641;83;21026;-69
2023/07/21 07:50:42;;;;;;;4.60;2.65;;;;;;;24.77;50.01;99955.13;1725918;83;21061;-68
2023/07/21 07:53:12;;;;;;;3.08;2.30;;;;;;;24.85;48.73;99955.84;1725870;83;21098;-68
2023/07/21 07:55:44;;;;;;;9.30;3.60;;;;;;;24.80;49.02;99956.48;1681854;84;21056;-69
2023/07/21 07:58:14;;;;;;;5.60;2.72;;;;;;;24.87;49.08;99958.34;1705650;84;21077;-68
2023/07/21 08:00:45;;;;;;;4.03;2.67;;;;;;;25.04;48.79;99959.23;1705745;84;21024;-69
2023/07/21 08:03:14;;;;;;;9.93;3.10;;;;;;;25.27;48.20;99959.70;1705176;83;21076;-68
2023/07/21 08:05:43;;;;;;;5.42;2.60;;;;;;;25.38;47.19;99955.61;1734288;82;21086;-67
2023/07/21 08:08:22;;;;;;;5.45;2.58;;;;;;;25.51;47.13;99956.22;1715702;83;21053;-68
2023/07/21 08:11:01;;;;;;;5.90;3.40;;;;;;;25.78;46.94;99956.88;1676282;84;21508;-68
2023/07/21 08:13:30;;;;;;;6.25;2.58;;;;;;;26.16;45.98;99960.94;1678857;83;21486;-67
2023/07/21 08:15:59;;;;;;;4.30;2.08;;;;;;;26.23;45.21;99959.38;1716806;83;21060;-68
2023/07/21 08:18:30;;;;;;;10.35;2.22;;;;;;;26.26;44.82;99957.09;1669291;86;21067;-68
2023/07/21 08:20:59;;;;;;;2.25;1.80;;;;;;;26.18;42.18;99970.72;1669264;86;21042;-68
2023/07/21 08:23:28;;;;;;;7.65;2.67;;;;;;;26.18;42.18;99970.72;1661745;86;21076;-68
2023/07/21 08:25:58;;;;;;;3.45;2.10;;;;;;;26.07;42.70;99968.42;1724183;83;21069;-68
2023/07/21 08:28:27;;;;;;;6.00;2.67;;;;;;;26.10;42.07;99962.19;1724247;83;20998;-68
2023/07/21 08:30:56;;;;;;;3.25;1.80;;;;;;;26.21;42.46;99961.67;1724172;83;21086;-69
2023/07/21 08:33:27;;;;;;;2.27;1.77;;;;;;;26.42;41.45;99974.75;1724329;83;21034;-67
2023/07/21 08:35:56;;;;;;;3.77;1.80;;;;;;;26.48;41.57;99969.84;1724368;83;21089;-70
2023/07/21 08:38:26;;;;;;;2.40;1.60;;;;;;;26.59;40.62;99964.27;1724460;82;21065;-68
2023/07/21 08:41:00;;;;;;;3.85;1.62;;;;;;;26.55;39.12;99966.04;1703753;83;21061;-69
2023/07/21 08:43:29;;;;;;;3.52;1.50;;;;;;;26.55;39.12;99966.04;1701633;84;21022;-69
2023/07/21 08:46:03;;;;;;;2.22;1.50;;;;;;;26.42;39.89;99966.31;1667783;86;21154;-66
2023/07/21 08:48:32;;;;;;;4.03;1.65;;;;;;;26.46;40.66;99966.52;1689471;85;21066;-68
2023/07/21 08:51:00;;;;;;;4.03;1.75;;;;;;;26.61;40.56;99980.81;1689180;85;21038;-68
2023/07/21 08:53:30;;;;;;;2.75;1.57;;;;;;;26.61;40.56;99980.81;1664257;85;21019;-69
2023/07/21 08:56:00;;;;;;;4.47;2.62;;;;;;;26.57;40.28;99974.16;1674665;84;21058;-67
2023/07/21 08:58:30;;;;;;;5.47;1.65;;;;;;;26.48;40.53;99975.47;1701890;84;21137;-70
2023/07/21 09:00:59;;;;;;;4.53;1.62;;;;;;;26.48;40.53;99975.47;1701982;84;21040;-69
2023/07/21 09:03:30;;;;;;;5.42;1.70;;;;;;;26.51;39.71;99981.86;1702118;83;21000;-67
2023/07/21 09:06:01;;;;;;;3.45;1.55;;;;;;;26.54;39.37;99982.64;1667789;84;21078;-68
2023/07/21 09:08:33;;;;;;;2.70;1.60;;;;;;;26.57;39.55;99973.58;1716629;83;21070;-68
2023/07/21 09:11:03;;;;;;;4.25;2.00;;;;;;;26.68;40.15;99977.03;1725982;83;21078;-67
2023/07/21 09:13:32;;;;;;;4.15;1.70;;;;;;;26.80;39.89;99979.55;1734160;82;21043;-67
2023/07/21 09:16:05;;;;;;;2.62;1.60;;;;;;;26.92;40.15;99975.36;1755711;82;21464;-67
2023/07/21 09:18:42;;;;;;;5.95;2.55;;;;;;;26.98;39.77;99978.34;1755576;82;21066;-69
2023/07/21 09:21:21;;;;;;;2.25;1.30;;;;;;;26.97;39.29;99980.86;1755853;82;20999;-68
2023/07/21 09:23:56;;;;;;;2.67;1.42;;;;;;;26.72;39.58;99980.30;1755764;82;21023;-69
2023/07/21 09:26:25;;;;;;;3.62;1.57;;;;;;;26.72;39.58;99980.30;1753161;82;21521;-66
2023/07/21 09:28:55;;;;;;;4.20;1.45;;;;;;;26.66;39.61;99974.53;1755710;82;21059;-69
2023/07/21 09:31:28;;;;;;;2.98;1.80;;;;;;;26.51;39.80;99975.67;1756127;82;20991;-68
2023/07/21 09:34:09;;;;;;;7.95;2.70;;;;;;;26.40;39.72;99970.58;1755709;82;21011;-68
2023/07/21 09:36:45;;;;;;;2.02;1.47;;;;;;;26.33;39.56;99972.98;1755516;82;21047;-66
2023/07/21 09:39:17;;;;;;;2.55;1.98;;;;;;;26.20;39.77;99971.81;1755592;82;21066;-69
2023/07/21 09:41:46;;;;;;;3.08;1.60;;;;;;;26.08;40.46;99978.52;1755758;82;21102;-66
2023/07/21 09:44:14;;;;;;;3.27;1.70;;;;;;;25.93;40.45;99979.61;1755668;82;21071;-68
2023/07/21 09:46:43;;;;;;;3.75;1.60;;;;;;;25.69;40.54;99983.16;1755498;82;21087;-68
2023/07/21 09:49:13;;;;;;;2.37;1.55;;;;;;;25.54;40.55;99973.84;1755749;82;21082;-68
2023/07/21 09:51:42;;;;;;;4.12;1.65;;;;;;;25.42;41.10;99977.70;1755667;82;21035;-64
2023/07/21 09:54:11;;;;;;;5.00;4.20;;;;;;;25.39;41.37;99981.69;1755933;82;20999;-65
2023/07/21 09:56:42;;;;;;;2.75;1.75;;;;;;;25.38;41.41;99992.08;1755537;82;21004;-68
2023/07/21 09:59:12;;;;;;;1.98;1.60;;;;;;;25.23;41.59;99984.72;1755637;82;21027;-68
2023/07/21 10:01:43;;;;;;;3.37;1.57;;;;;;;25.15;41.46;99992.98;1755980;82;21028;-67
2023/07/21 10:04:14;;;;;;;3.17;1.65;;;;;;;25.13;41.45;99995.26;1755647;82;21018;-68
2023/07/21 10:06:44;;;;;;;1.87;1.45;;;;;;;25.15;41.47;99997.19;1755760;82;21552;-69
2023/07/21 10:09:13;;;;;;;2.35;1.57;;;;;;;25.06;41.65;99994.24;1755771;82;21015;-67
2023/07/21 10:11:46;;;;;;;4.70;1.90;;;;;;;24.96;41.79;99990.99;1755723;82;21474;-68
2023/07/21 10:14:34;;;;;;;1.92;1.50;;;;;;;24.94;42.66;100000.27;1728500;82;21521;-66
2023/07/21 10:17:04;;;;;;;2.85;1.70;;;;;;;24.93;42.31;100000.00;1755794;82;21079;-67
2023/07/21 10:19:41;;;;;;;4.75;1.87;;;;;;;24.93;42.05;100000.00;1755831;82;21450;-69
2023/07/21 10:22:15;;;;;;;3.90;1.57;;;;;;;24.92;42.50;99996.94;1755754;82;21003;-68
2023/07/21 10:24:47;;;;;;;3.30;1.67;;;;;;;24.92;42.35;100010.12;1755712;82;21042;-68
2023/07/21 10:27:20;;;;;;;1.90;1.32;;;;;;;24.82;41.35;100013.06;1755564;82;21023;-67
2023/07/21 10:29:53;;;;;;;1.77;1.35;;;;;;;24.72;41.22;100009.84;1755800;82;21039;-70
2023/07/21 10:32:22;;;;;;;2.10;1.47;;;;;;;24.68;41.33;100012.94;1755914;82;21035;-68
2023/07/21 10:34:52;;;;;;;2.30;1.70;;;;;;;24.67;41.07;100011.28;1755688;82;21079;-67
2023/07/21 10:37:21;;;;;;;2.33;1.40;;;;;;;24.69;41.09;100010.41;1728855;82;21039;-70
2023/07/21 10:39:55;;;;;;;4.15;1.30;;;;;;;24.77;40.49;100017.34;1755788;82;21023;-67
2023/07/21 10:42:25;;;;;;;4.37;1.80;;;;;;;24.76;39.92;100005.87;1755987;82;21071;-69
2023/07/21 10:44:56;;;;;;;1.90;1.30;;;;;;;24.74;40.11;100017.94;1728701;82;21047;-67
2023/07/21 10:47:26;;;;;;;1.72;1.30;;;;;;;24.79;39.96;100018.70;1753270;82;20991;-69
2023/07/21 10:49:56;;;;;;;4.35;1.65;;;;;;;24.82;39.63;100016.70;1714323;83;21048;-67
2023/07/21 10:52:25;;;;;;;3.42;1.27;;;;;;;24.82;40.34;100013.90;1737075;82;21530;-68
2023/07/21 10:54:57;;;;;;;1.98;1.15;;;;;;;24.92;39.99;100015.16;1755266;82;21483;-66
2023/07/21 10:57:34;;;;;;;2.42;1.42;;;;;;;25.05;39.51;100011.36;1755497;82;21074;-66
2023/07/21 11:00:07;;;;;;;2.47;1.45;;;;;;;25.15;39.07;100008.41;1755458;82;21525;-69
2023/07/21 11:02:42;;;;;;;4.00;1.57;;;;;;;25.14;38.69;100015.15;1755897;82;21170;-68
2023/07/21 11:05:13;;;;;;;4.62;1.40;;;;;;;25.08;39.14;100007.38;1743459;82;21051;-69
2023/07/21 11:07:44;;;;;;;2.92;1.47;;;;;;;25.05;39.16;100009.97;1699005;83;21000;-68
2023/07/21 11:10:15;;;;;;;2.42;1.70;;;;;;;25.08;39.27;100009.36;1708023;83;21059;-71
2023/07/21 11:12:50;;;;;;;5.37;1.72;;;;;;;25.10;39.74;100004.28;1660361;86;21035;-71
2023/07/21 11:15:21;;;;;;;1.65;1.40;;;;;;;25.12;39.83;100003.41;1660952;86;21040;-68
2023/07/21 11:18:04;;;;;;;7.75;2.67;;;;;;;25.16;40.04;100012.88;1719887;83;21050;-68
2023/07/21 11:20:35;;;;;;;2.17;1.30;;;;;;;25.17;38.83;100001.92;1707581;83;21535;-68
2023/07/21 11:23:06;;;;;;;2.70;1.40;;;;;;;25.11;38.56;100005.95;1710669;83;21447;-69
2023/07/21 11:25:40;;;;;;;2.27;1.37;;;;;;;25.07;38.31;100005.72;1669469;86;21106;-69
2023/07/21 11:28:14;;;;;;;4.47;1.55;;;;;;;25.03;39.01;99998.22;1729905;83;21134;-70
2023/07/21 11:30:46;;;;;;;3.22;1.30;;;;;;;25.08;38.89;100005.98;1729775;83;21455;-72
2023/07/21 11:33:16;;;;;;;3.42;1.47;;;;;;;25.13;39.11;99997.49;1642373;86;21118;-68
2023/07/21 11:35:48;;;;;;;2.55;1.50;;;;;;;25.22;39.08;100001.84;1724667;83;21023;-68
2023/07/21 11:38:18;;;;;;;2.27;1.22;;;;;;;25.31;39.15;100009.00;1724792;83;21098;-69
2023/07/21 11:40:48;;;;;;;1.92;1.17;;;;;;;25.32;38.86;100001.68;1724840;83;21039;-68
2023/07/21 11:43:17;;;;;;;2.62;1.30;;;;;;;25.27;38.19;100002.59;1669348;86;21079;-70
2023/07/21 11:45:48;;;;;;;2.37;1.40;;;;;;;25.24;38.32;100003.77;1699481;83;21463;-69
2023/07/21 11:48:22;;;;;;;4.42;1.70;;;;;;;25.21;38.38;100007.19;1697015;83;21039;-70
2023/07/21 11:50:55;;;;;;;3.62;1.62;;;;;;;25.12;38.87;100007.04;1696511;83;21480;-69